createdAt,value
2017-06-20T00:00:04.130Z,0
2017-06-20T00:01:14.353Z,0
2017-06-20T00:02:24.583Z,0
2017-06-20T00:03:34.224Z,0
2017-06-20T00:04:43.531Z,0
2017-06-20T00:05:53.440Z,0
2017-06-20T00:07:03.678Z,0
2017-06-20T00:08:13.909Z,0
2017-06-20T00:09:23.820Z,0
2017-06-20T00:10:33.726Z,0
2017-06-20T00:11:43.640Z,0
2017-06-20T00:12:53.555Z,0
2017-06-20T00:14:03.919Z,0
2017-06-20T00:15:13.213Z,0
2017-06-20T00:16:23.439Z,0
2017-06-20T00:17:33.388Z,0
2017-06-20T00:18:43.298Z,0
2017-06-20T00:19:53.275Z,0
2017-06-20T00:21:03.490Z,0
2017-06-20T00:22:13.400Z,0
2017-06-20T00:23:23.306Z,0
2017-06-20T00:24:32.609Z,0
2017-06-20T00:25:42.546Z,0
2017-06-20T00:26:52.487Z,0
2017-06-20T00:28:01.789Z,0
2017-06-20T00:29:10.797Z,0
2017-06-20T00:30:20.718Z,0
2017-06-20T00:31:30.969Z,0
2017-06-20T00:32:40.573Z,0
2017-06-20T00:33:50.845Z,0
2017-06-20T00:35:00.483Z,0
2017-06-20T00:36:10.412Z,0
2017-06-20T00:37:20.459Z,0
2017-06-20T00:38:30.441Z,0
2017-06-20T00:39:40.080Z,0
2017-06-20T00:40:49.702Z,0
2017-06-20T00:41:59.613Z,0
2017-06-20T00:43:09.567Z,0
2017-06-20T00:44:18.556Z,0
2017-06-20T00:45:28.465Z,0
2017-06-20T00:46:38.064Z,0
2017-06-20T00:47:48.009Z,0
2017-06-20T00:48:58.243Z,0
2017-06-20T00:50:07.861Z,0
2017-06-20T00:51:18.119Z,0
2017-06-20T00:52:28.368Z,0
2017-06-20T00:53:37.695Z,0
2017-06-20T00:54:47.607Z,0
2017-06-20T00:55:57.528Z,0
2017-06-20T00:57:06.845Z,0
2017-06-20T00:58:16.758Z,0
2017-06-20T00:59:26.981Z,0
2017-06-20T01:00:36.638Z,0
2017-06-20T01:01:46.877Z,0
2017-06-20T01:02:56.480Z,0
2017-06-20T01:04:06.086Z,0
2017-06-20T01:05:16.305Z,0
2017-06-20T01:06:26.714Z,0
2017-06-20T01:07:36.323Z,0
2017-06-20T01:08:46.235Z,0
2017-06-20T01:09:55.534Z,0
2017-06-20T01:11:05.147Z,0
2017-06-20T01:12:15.391Z,0
2017-06-20T01:13:25.324Z,0
2017-06-20T01:14:35.236Z,0
2017-06-20T01:15:44.563Z,0
2017-06-20T01:16:54.499Z,0
2017-06-20T01:18:04.831Z,0
2017-06-20T01:19:14.136Z,0
2017-06-20T01:20:24.365Z,0
2017-06-20T01:21:33.667Z,0
2017-06-20T01:22:43.280Z,0
2017-06-20T01:23:53.225Z,0
2017-06-20T01:25:03.167Z,0
2017-06-20T01:26:12.487Z,0
2017-06-20T01:27:22.418Z,0
2017-06-20T01:28:32.647Z,0
2017-06-20T01:29:42.939Z,0
2017-06-20T01:30:52.563Z,0
2017-06-20T01:32:02.797Z,0
2017-06-20T01:33:12.104Z,0
2017-06-20T01:34:21.414Z,0
2017-06-20T01:35:31.125Z,0
2017-06-20T01:36:41.057Z,0
2017-06-20T01:37:51.307Z,0
2017-06-20T01:39:00.913Z,0
2017-06-20T01:40:10.516Z,0
2017-06-20T01:41:20.887Z,0
2017-06-20T01:42:30.547Z,0
2017-06-20T01:43:39.851Z,0
2017-06-20T01:44:50.070Z,0
2017-06-20T01:45:59.376Z,0
2017-06-20T01:47:09.693Z,0
2017-06-20T01:48:19.902Z,0
2017-06-20T01:49:29.513Z,0
2017-06-20T01:50:39.433Z,0
2017-06-20T01:51:49.043Z,0
2017-06-20T01:52:58.646Z,0
2017-06-20T01:54:08.268Z,0
2017-06-20T01:55:17.872Z,0
2017-06-20T01:56:28.115Z,0
2017-06-20T01:57:37.717Z,0
2017-06-20T01:58:48.039Z,0
2017-06-20T01:59:58.259Z,0
2017-06-20T02:01:08.172Z,0
2017-06-20T02:02:18.089Z,0
2017-06-20T02:03:28.018Z,0
2017-06-20T02:04:38.396Z,0
2017-06-20T02:05:48.007Z,0
2017-06-20T02:06:57.929Z,0
2017-06-20T02:08:08.157Z,0
2017-06-20T02:09:17.761Z,0
2017-06-20T02:10:27.688Z,0
2017-06-20T02:11:37.920Z,0
2017-06-20T02:12:47.832Z,0
2017-06-20T02:13:58.060Z,0
2017-06-20T02:15:07.673Z,0
2017-06-20T02:16:17.899Z,0
2017-06-20T02:17:28.124Z,0
2017-06-20T02:18:38.042Z,0
2017-06-20T02:19:48.269Z,0
2017-06-20T02:20:58.177Z,0
2017-06-20T02:22:07.467Z,0
2017-06-20T02:23:17.388Z,0
2017-06-20T02:24:26.989Z,0
2017-06-20T02:25:36.905Z,0
2017-06-20T02:26:46.222Z,0
2017-06-20T02:27:56.178Z,0
2017-06-20T02:29:06.395Z,0
2017-06-20T02:30:15.714Z,0
2017-06-20T02:31:25.323Z,0
2017-06-20T02:32:35.230Z,0
2017-06-20T02:33:45.153Z,0
2017-06-20T02:34:54.761Z,0
2017-06-20T02:36:04.699Z,0
2017-06-20T02:37:14.305Z,0
2017-06-20T02:38:23.915Z,0
2017-06-20T02:39:33.546Z,0
2017-06-20T02:40:43.474Z,0
2017-06-20T02:41:53.704Z,0
2017-06-20T02:43:03.931Z,0
2017-06-20T02:44:14.150Z,0
2017-06-20T02:45:24.174Z,0
2017-06-20T02:46:34.392Z,0
2017-06-20T02:47:44.376Z,0
2017-06-20T02:48:54.289Z,0
2017-06-20T02:50:04.511Z,0
2017-06-20T02:51:15.050Z,0
2017-06-20T02:52:24.964Z,0
2017-06-20T02:53:34.866Z,0
2017-06-20T02:54:44.482Z,0
2017-06-20T02:55:54.077Z,0
2017-06-20T02:57:04.307Z,0
2017-06-20T02:58:14.236Z,0
2017-06-20T02:59:24.463Z,0
2017-06-20T03:00:34.683Z,0
2017-06-20T03:01:44.295Z,0
2017-06-20T03:02:54.061Z,0
2017-06-20T03:04:03.684Z,0
2017-06-20T03:05:13.597Z,0
2017-06-20T03:06:23.819Z,0
2017-06-20T03:07:34.037Z,0
2017-06-20T03:08:44.262Z,0
2017-06-20T03:09:54.172Z,0
2017-06-20T03:11:03.473Z,0
2017-06-20T03:12:12.764Z,0
2017-06-20T03:13:22.713Z,0
2017-06-20T03:14:33.276Z,0
2017-06-20T03:15:43.196Z,0
2017-06-20T03:16:52.802Z,0
2017-06-20T03:18:01.809Z,0
2017-06-20T03:19:11.714Z,0
2017-06-20T03:20:21.618Z,0
2017-06-20T03:21:31.266Z,0
2017-06-20T03:22:41.486Z,0
2017-06-20T03:23:51.705Z,0
2017-06-20T03:25:01.004Z,0
2017-06-20T03:26:10.460Z,0
2017-06-20T03:27:20.390Z,0
2017-06-20T03:28:30.300Z,0
2017-06-20T03:29:40.529Z,0
2017-06-20T03:30:50.431Z,0
2017-06-20T03:32:00.032Z,0
2017-06-20T03:33:09.937Z,0
2017-06-20T03:34:19.539Z,0
2017-06-20T03:35:29.769Z,0
2017-06-20T03:36:39.682Z,0
2017-06-20T03:37:49.900Z,0
2017-06-20T03:38:59.506Z,0
2017-06-20T03:40:09.719Z,0
2017-06-20T03:41:19.626Z,0
2017-06-20T03:42:29.771Z,0
2017-06-20T03:43:39.683Z,0
2017-06-20T03:44:49.322Z,0
2017-06-20T03:45:59.245Z,0
2017-06-20T03:47:09.467Z,0
2017-06-20T03:48:19.082Z,0
2017-06-20T03:49:28.831Z,0
2017-06-20T03:50:38.753Z,0
2017-06-20T03:51:48.666Z,0
2017-06-20T03:52:58.597Z,0
2017-06-20T03:54:08.199Z,0
2017-06-20T03:55:18.216Z,0
2017-06-20T03:56:27.824Z,0
2017-06-20T03:57:38.041Z,0
2017-06-20T03:58:47.654Z,0
2017-06-20T03:59:57.564Z,0
2017-06-20T04:01:07.474Z,0
2017-06-20T04:02:17.700Z,0
2017-06-20T04:03:27.607Z,0
2017-06-20T04:04:37.217Z,0
2017-06-20T04:05:46.510Z,0
2017-06-20T04:06:56.434Z,0
2017-06-20T04:08:06.044Z,0
2017-06-20T04:09:15.661Z,5
2017-06-20T04:10:25.613Z,5
2017-06-20T04:11:35.534Z,5
2017-06-20T04:12:45.147Z,5
2017-06-20T04:13:54.753Z,5
2017-06-20T04:15:04.671Z,5
2017-06-20T04:16:14.281Z,5
2017-06-20T04:17:24.193Z,5
2017-06-20T04:18:34.278Z,5
2017-06-20T04:19:44.261Z,5
2017-06-20T04:20:54.172Z,5
2017-06-20T04:22:03.796Z,5
2017-06-20T04:23:13.730Z,5
2017-06-20T04:24:23.401Z,5
2017-06-20T04:25:33.626Z,5
2017-06-20T04:26:43.274Z,5
2017-06-20T04:27:53.518Z,5
2017-06-20T04:29:03.434Z,5
2017-06-20T04:30:12.900Z,5
2017-06-20T04:31:22.532Z,5
2017-06-20T04:32:32.459Z,5
2017-06-20T04:33:42.400Z,5
2017-06-20T04:34:52.642Z,5
2017-06-20T04:36:03.013Z,5
2017-06-20T04:37:12.642Z,10
2017-06-20T04:38:22.580Z,10
2017-06-20T04:39:31.897Z,10
2017-06-20T04:40:41.517Z,10
2017-06-20T04:41:51.457Z,10
2017-06-20T04:43:00.779Z,10
2017-06-20T04:44:10.698Z,10
2017-06-20T04:45:20.606Z,10
2017-06-20T04:46:30.256Z,10
2017-06-20T04:47:39.967Z,10
2017-06-20T04:48:49.617Z,10
2017-06-20T04:49:59.534Z,10
2017-06-20T04:51:09.775Z,10
2017-06-20T04:52:19.378Z,10
2017-06-20T04:53:29.734Z,10
2017-06-20T04:54:38.734Z,10
2017-06-20T04:55:48.026Z,10
2017-06-20T04:56:57.668Z,10
2017-06-20T04:58:07.888Z,10
2017-06-20T04:59:17.203Z,10
2017-06-20T05:00:27.135Z,10
2017-06-20T05:01:36.756Z,10
2017-06-20T05:02:47.005Z,10
2017-06-20T05:03:56.959Z,10
2017-06-20T05:05:06.594Z,10
2017-06-20T05:06:16.511Z,10
2017-06-20T05:07:26.750Z,10
2017-06-20T05:08:36.715Z,10
2017-06-20T05:09:46.025Z,10
2017-06-20T05:10:55.985Z,15
2017-06-20T05:12:06.213Z,15
2017-06-20T05:13:16.133Z,15
2017-06-20T05:14:25.792Z,15
2017-06-20T05:15:35.097Z,15
2017-06-20T05:16:45.004Z,20
2017-06-20T05:17:54.979Z,20
2017-06-20T05:19:04.330Z,25
2017-06-20T05:20:14.563Z,25
2017-06-20T05:21:24.498Z,30
2017-06-20T05:22:33.568Z,35
2017-06-20T05:23:42.882Z,40
2017-06-20T05:24:53.118Z,35
2017-06-20T05:26:02.427Z,40
2017-06-20T05:27:12.048Z,40
2017-06-20T05:28:22.115Z,40
2017-06-20T05:29:31.731Z,40
2017-06-20T05:30:41.957Z,40
2017-06-20T05:31:51.255Z,40
2017-06-20T05:33:00.872Z,40
2017-06-20T05:34:11.204Z,40
2017-06-20T05:35:21.142Z,40
2017-06-20T05:36:30.452Z,40
2017-06-20T05:37:40.067Z,40
2017-06-20T05:38:50.299Z,40
2017-06-20T05:40:00.865Z,40
2017-06-20T05:41:10.479Z,45
2017-06-20T05:42:20.716Z,45
2017-06-20T05:43:29.713Z,45
2017-06-20T05:44:39.619Z,45
2017-06-20T05:45:50.188Z,45
2017-06-20T05:46:59.800Z,45
2017-06-20T05:48:10.018Z,45
2017-06-20T05:49:19.936Z,45
2017-06-20T05:50:28.945Z,45
2017-06-20T05:51:39.171Z,50
2017-06-20T05:52:48.790Z,45
2017-06-20T05:53:59.015Z,45
2017-06-20T05:55:09.080Z,45
2017-06-20T05:56:18.725Z,45
2017-06-20T05:57:28.394Z,45
2017-06-20T05:58:37.698Z,45
2017-06-20T05:59:47.005Z,45
2017-06-20T06:00:56.637Z,45
2017-06-20T06:02:06.249Z,45
2017-06-20T06:03:16.317Z,45
2017-06-20T06:04:26.226Z,45
2017-06-20T06:05:36.191Z,50
2017-06-20T06:06:46.421Z,50
2017-06-20T06:07:56.630Z,50
2017-06-20T06:09:06.847Z,50
2017-06-20T06:10:16.142Z,50
2017-06-20T06:11:25.757Z,55
2017-06-20T06:12:35.359Z,55
2017-06-20T06:13:45.280Z,55
2017-06-20T06:14:55.213Z,55
2017-06-20T06:16:05.117Z,55
2017-06-20T06:17:15.035Z,55
2017-06-20T06:18:24.641Z,55
2017-06-20T06:19:34.564Z,55
2017-06-20T06:20:44.563Z,55
2017-06-20T06:21:54.793Z,55
2017-06-20T06:23:04.407Z,60
2017-06-20T06:24:14.633Z,60
2017-06-20T06:25:24.547Z,60
2017-06-20T06:26:34.466Z,60
2017-06-20T06:27:44.388Z,60
2017-06-20T06:28:54.304Z,60
2017-06-20T06:30:04.246Z,60
2017-06-20T06:31:13.863Z,60
2017-06-20T06:32:24.250Z,60
2017-06-20T06:33:33.876Z,60
2017-06-20T06:34:43.493Z,65
2017-06-20T06:35:53.720Z,65
2017-06-20T06:37:03.659Z,65
2017-06-20T06:38:13.393Z,60
2017-06-20T06:39:23.310Z,60
2017-06-20T06:40:32.314Z,65
2017-06-20T06:41:42.555Z,65
2017-06-20T06:42:52.807Z,65
2017-06-20T06:44:02.726Z,65
2017-06-20T06:45:12.335Z,65
2017-06-20T06:46:21.638Z,65
2017-06-20T06:47:31.859Z,70
2017-06-20T06:48:41.808Z,65
2017-06-20T06:49:51.462Z,65
2017-06-20T06:51:01.388Z,65
2017-06-20T06:52:11.307Z,65
2017-06-20T06:53:21.237Z,65
2017-06-20T06:54:30.857Z,65
2017-06-20T06:55:41.232Z,65
2017-06-20T06:56:51.171Z,60
2017-06-20T06:58:00.789Z,55
2017-06-20T06:59:11.017Z,65
2017-06-20T07:00:20.943Z,70
2017-06-20T07:01:30.614Z,75
2017-06-20T07:02:40.540Z,75
2017-06-20T07:03:50.161Z,80
2017-06-20T07:05:00.398Z,80
2017-06-20T07:06:10.657Z,80
2017-06-20T07:07:20.989Z,85
2017-06-20T07:08:31.225Z,85
2017-06-20T07:09:41.455Z,90
2017-06-20T07:10:51.077Z,90
2017-06-20T07:12:01.005Z,95
2017-06-20T07:13:11.249Z,95
2017-06-20T07:14:21.502Z,100
2017-06-20T07:15:31.133Z,115
2017-06-20T07:16:40.765Z,130
2017-06-20T07:17:50.720Z,155
2017-06-20T07:19:00.949Z,190
2017-06-20T07:20:10.875Z,120
2017-06-20T07:21:20.810Z,110
2017-06-20T07:22:30.425Z,100
2017-06-20T07:23:40.068Z,100
2017-06-20T07:24:49.687Z,100
2017-06-20T07:25:59.381Z,105
2017-06-20T07:27:09.301Z,110
2017-06-20T07:28:19.258Z,115
2017-06-20T07:29:29.529Z,120
2017-06-20T07:30:39.532Z,145
2017-06-20T07:31:49.151Z,155
2017-06-20T07:32:59.390Z,145
2017-06-20T07:34:09.366Z,140
2017-06-20T07:35:18.996Z,145
2017-06-20T07:36:29.618Z,145
2017-06-20T07:37:39.861Z,145
2017-06-20T07:38:49.494Z,150
2017-06-20T07:39:58.518Z,150
2017-06-20T07:41:08.442Z,155
2017-06-20T07:42:18.065Z,160
2017-06-20T07:43:28.006Z,160
2017-06-20T07:44:37.935Z,165
2017-06-20T07:45:48.185Z,170
2017-06-20T07:46:57.814Z,180
2017-06-20T07:48:07.464Z,195
2017-06-20T07:49:17.079Z,210
2017-06-20T07:50:27.299Z,260
2017-06-20T07:51:37.550Z,460
2017-06-20T07:52:47.788Z,775
2017-06-20T07:53:57.248Z,895
2017-06-20T07:55:07.167Z,1015
2017-06-20T07:56:17.091Z,985
2017-06-20T07:57:26.750Z,1010
2017-06-20T07:58:36.366Z,1065
2017-06-20T07:59:46.033Z,985
2017-06-20T08:00:55.645Z,725
2017-06-20T08:02:05.577Z,605
2017-06-20T08:03:15.501Z,720
2017-06-20T08:04:25.426Z,975
2017-06-20T08:05:35.713Z,1065
2017-06-20T08:06:45.940Z,1005
2017-06-20T08:07:55.855Z,1070
2017-06-20T08:09:05.794Z,1110
2017-06-20T08:10:15.422Z,1180
2017-06-20T08:11:25.185Z,1165
2017-06-20T08:12:35.127Z,1150
2017-06-20T08:13:44.751Z,1165
2017-06-20T08:14:54.691Z,1125
2017-06-20T08:16:04.622Z,1135
2017-06-20T08:17:14.593Z,1050
2017-06-20T08:18:24.513Z,1050
2017-06-20T08:19:34.540Z,1060
2017-06-20T08:20:44.793Z,1125
2017-06-20T08:21:54.743Z,1105
2017-06-20T08:23:04.731Z,1095
2017-06-20T08:24:14.356Z,1210
2017-06-20T08:25:24.275Z,1230
2017-06-20T08:26:33.890Z,1095
2017-06-20T08:27:44.139Z,1170
2017-06-20T08:28:54.731Z,1265
2017-06-20T08:30:04.353Z,1265
2017-06-20T08:31:13.971Z,1135
2017-06-20T08:32:23.911Z,1210
2017-06-20T08:33:33.214Z,1170
2017-06-20T08:34:43.313Z,1175
2017-06-20T08:35:52.630Z,1105
2017-06-20T08:37:02.873Z,1185
2017-06-20T08:38:12.790Z,1195
2017-06-20T08:39:23.024Z,1090
2017-06-20T08:40:33.170Z,1235
2017-06-20T08:41:43.416Z,1245
2017-06-20T08:42:52.727Z,1100
2017-06-20T08:44:02.982Z,1200
2017-06-20T08:45:12.918Z,1205
2017-06-20T08:46:23.305Z,1010
2017-06-20T08:47:32.306Z,490
2017-06-20T08:48:41.923Z,100
2017-06-20T08:49:51.551Z,70
2017-06-20T08:51:00.896Z,60
2017-06-20T08:52:10.573Z,55
2017-06-20T08:53:19.877Z,50
2017-06-20T08:54:30.102Z,50
2017-06-20T08:55:40.333Z,45
2017-06-20T08:56:50.000Z,45
2017-06-20T08:57:59.937Z,40
2017-06-20T08:59:10.189Z,40
2017-06-20T09:00:20.425Z,40
2017-06-20T09:01:30.046Z,35
2017-06-20T09:02:39.656Z,35
2017-06-20T09:03:48.717Z,35
2017-06-20T09:04:58.653Z,35
2017-06-20T09:06:08.283Z,35
2017-06-20T09:07:18.209Z,35
2017-06-20T09:08:27.842Z,30
2017-06-20T09:09:38.070Z,30
2017-06-20T09:10:48.005Z,30
2017-06-20T09:11:57.626Z,30
2017-06-20T09:13:07.549Z,30
2017-06-20T09:14:17.808Z,30
2017-06-20T09:15:27.837Z,30
2017-06-20T09:16:38.077Z,30
2017-06-20T09:17:47.395Z,30
2017-06-20T09:18:56.395Z,25
2017-06-20T09:20:06.021Z,25
2017-06-20T09:21:16.437Z,25
2017-06-20T09:22:26.086Z,25
2017-06-20T09:23:35.396Z,25
2017-06-20T09:24:45.321Z,25
2017-06-20T09:25:55.248Z,25
2017-06-20T09:27:04.669Z,25
2017-06-20T09:28:14.281Z,25
2017-06-20T09:29:23.905Z,25
2017-06-20T09:30:33.522Z,25
2017-06-20T09:31:43.437Z,25
2017-06-20T09:32:53.204Z,25
2017-06-20T09:34:02.516Z,25
2017-06-20T09:35:12.152Z,25
2017-06-20T09:36:21.464Z,25
2017-06-20T09:37:31.399Z,25
2017-06-20T09:38:40.750Z,25
2017-06-20T09:39:50.682Z,25
2017-06-20T09:41:00.925Z,25
2017-06-20T09:42:10.840Z,25
2017-06-20T09:43:20.799Z,25
2017-06-20T09:44:30.794Z,25
2017-06-20T09:45:40.711Z,25
2017-06-20T09:46:50.322Z,25
2017-06-20T09:47:59.946Z,25
2017-06-20T09:49:08.950Z,25
2017-06-20T09:50:18.417Z,25
2017-06-20T09:51:28.661Z,25
2017-06-20T09:52:37.652Z,25
2017-06-20T09:53:47.581Z,25
2017-06-20T09:54:56.885Z,25
2017-06-20T09:56:07.227Z,25
2017-06-20T09:57:17.156Z,25
2017-06-20T09:58:26.763Z,25
2017-06-20T09:59:36.685Z,25
2017-06-20T10:00:46.599Z,25
2017-06-20T10:01:55.619Z,25
2017-06-20T10:03:04.939Z,25
2017-06-20T10:04:15.169Z,20
2017-06-20T10:05:24.507Z,20
2017-06-20T10:06:34.733Z,20
2017-06-20T10:07:44.517Z,20
2017-06-20T10:08:54.742Z,20
2017-06-20T10:10:04.362Z,25
2017-06-20T10:11:13.995Z,25
2017-06-20T10:12:24.228Z,25
2017-06-20T10:13:34.154Z,25
2017-06-20T10:14:44.370Z,20
2017-06-20T10:15:54.295Z,20
2017-06-20T10:17:04.524Z,20
2017-06-20T10:18:14.753Z,20
2017-06-20T10:19:23.813Z,20
2017-06-20T10:20:33.803Z,20
2017-06-20T10:21:43.427Z,20
2017-06-20T10:22:53.359Z,20
2017-06-20T10:24:03.602Z,20
2017-06-20T10:25:13.003Z,20
2017-06-20T10:26:22.615Z,20
2017-06-20T10:27:32.853Z,20
2017-06-20T10:28:43.076Z,20
2017-06-20T10:29:53.298Z,20
2017-06-20T10:31:03.058Z,20
2017-06-20T10:32:12.973Z,20
2017-06-20T10:33:22.900Z,20
2017-06-20T10:34:32.516Z,20
2017-06-20T10:35:42.437Z,20
2017-06-20T10:36:52.510Z,20
2017-06-20T10:38:02.128Z,20
2017-06-20T10:39:12.067Z,20
2017-06-20T10:40:22.016Z,20
2017-06-20T10:41:31.951Z,20
2017-06-20T10:42:42.204Z,20
2017-06-20T10:43:52.439Z,20
2017-06-20T10:45:02.361Z,20
2017-06-20T10:46:12.276Z,20
2017-06-20T10:47:22.206Z,20
2017-06-20T10:48:32.585Z,20
2017-06-20T10:49:42.507Z,20
2017-06-20T10:50:52.446Z,20
2017-06-20T10:52:01.773Z,20
2017-06-20T10:53:12.042Z,20
2017-06-20T10:54:21.771Z,20
2017-06-20T10:55:31.100Z,20
2017-06-20T10:56:40.732Z,20
2017-06-20T10:57:50.970Z,20
2017-06-20T10:59:00.898Z,15
2017-06-20T11:00:10.828Z,15
2017-06-20T11:01:21.057Z,15
2017-06-20T11:02:30.982Z,15
2017-06-20T11:03:40.595Z,15
2017-06-20T11:04:50.862Z,15
2017-06-20T11:06:00.527Z,15
2017-06-20T11:07:10.756Z,15
2017-06-20T11:08:20.678Z,15
2017-06-20T11:09:30.909Z,15
2017-06-20T11:10:40.827Z,15
2017-06-20T11:11:50.843Z,15
2017-06-20T11:13:01.072Z,15
2017-06-20T11:14:11.014Z,15
2017-06-20T11:15:20.943Z,15
2017-06-20T11:16:30.874Z,15
2017-06-20T11:17:41.260Z,15
2017-06-20T11:18:50.894Z,15
2017-06-20T11:20:00.816Z,15
2017-06-20T11:21:10.733Z,15
2017-06-20T11:22:20.672Z,15
2017-06-20T11:23:31.249Z,15
2017-06-20T11:24:40.857Z,15
2017-06-20T11:25:51.084Z,15
2017-06-20T11:27:01.046Z,15
2017-06-20T11:28:10.661Z,15
2017-06-20T11:29:21.038Z,15
2017-06-20T11:30:30.657Z,15
2017-06-20T11:31:40.275Z,15
2017-06-20T11:32:50.197Z,15
2017-06-20T11:34:00.139Z,15
2017-06-20T11:35:10.545Z,15
2017-06-20T11:36:20.795Z,15
2017-06-20T11:37:30.408Z,15
2017-06-20T11:38:40.337Z,15
2017-06-20T11:39:50.563Z,15
2017-06-20T11:41:00.173Z,15
2017-06-20T11:42:10.094Z,15
2017-06-20T11:43:20.323Z,15
2017-06-20T11:44:29.945Z,15
2017-06-20T11:45:39.568Z,15
2017-06-20T11:46:48.862Z,15
2017-06-20T11:47:58.782Z,15
2017-06-20T11:49:09.017Z,15
2017-06-20T11:50:19.247Z,15
2017-06-20T11:51:29.223Z,15
2017-06-20T11:52:38.895Z,15
2017-06-20T11:53:48.509Z,15
2017-06-20T11:54:58.742Z,15
2017-06-20T11:56:08.371Z,15
2017-06-20T11:57:18.286Z,15
2017-06-20T11:58:28.230Z,15
2017-06-20T11:59:38.476Z,15
2017-06-20T12:00:48.415Z,15
2017-06-20T12:01:58.654Z,15
2017-06-20T12:03:08.571Z,15
2017-06-20T12:04:17.932Z,15
2017-06-20T12:05:28.172Z,15
2017-06-20T12:06:38.104Z,15
2017-06-20T12:07:47.716Z,15
2017-06-20T12:08:57.350Z,15
2017-06-20T12:10:06.727Z,15
2017-06-20T12:11:16.353Z,15
2017-06-20T12:12:26.280Z,15
2017-06-20T12:13:36.517Z,15
2017-06-20T12:14:46.437Z,15
2017-06-20T12:15:56.673Z,15
2017-06-20T12:17:06.908Z,15
2017-06-20T12:18:17.158Z,15
2017-06-20T12:19:27.076Z,15
2017-06-20T12:20:36.709Z,15
2017-06-20T12:21:46.383Z,15
2017-06-20T12:22:56.002Z,15
2017-06-20T12:24:05.013Z,15
2017-06-20T12:25:14.630Z,15
2017-06-20T12:26:24.570Z,15
2017-06-20T12:27:34.525Z,15
2017-06-20T12:28:44.443Z,15
2017-06-20T12:29:54.383Z,15
2017-06-20T12:31:04.620Z,15
2017-06-20T12:32:14.556Z,15
2017-06-20T12:33:24.808Z,15
2017-06-20T12:34:34.427Z,15
2017-06-20T12:35:44.346Z,15
2017-06-20T12:36:54.577Z,15
2017-06-20T12:38:04.821Z,15
2017-06-20T12:39:14.743Z,15
2017-06-20T12:40:24.365Z,15
2017-06-20T12:41:34.296Z,15
2017-06-20T12:42:44.235Z,15
2017-06-20T12:43:53.850Z,15
2017-06-20T12:45:03.935Z,15
2017-06-20T12:46:13.865Z,15
2017-06-20T12:47:23.172Z,15
2017-06-20T12:48:33.111Z,15
2017-06-20T12:49:43.062Z,15
2017-06-20T12:50:53.155Z,15
2017-06-20T12:52:02.800Z,15
2017-06-20T12:53:12.823Z,15
2017-06-20T12:54:22.439Z,15
2017-06-20T12:55:32.676Z,15
2017-06-20T12:56:42.595Z,15
2017-06-20T12:57:52.832Z,15
2017-06-20T12:59:02.764Z,15
2017-06-20T13:00:13.017Z,20
2017-06-20T13:01:22.631Z,20
2017-06-20T13:02:32.281Z,20
2017-06-20T13:03:42.208Z,20
2017-06-20T13:04:51.516Z,20
2017-06-20T13:06:01.754Z,20
2017-06-20T13:07:11.687Z,20
2017-06-20T13:08:21.642Z,15
2017-06-20T13:09:31.582Z,20
2017-06-20T13:10:40.895Z,15
2017-06-20T13:11:50.815Z,15
2017-06-20T13:13:01.067Z,15
2017-06-20T13:14:10.779Z,15
2017-06-20T13:15:20.694Z,15
2017-06-20T13:16:30.931Z,15
2017-06-20T13:17:40.861Z,15
2017-06-20T13:18:50.800Z,15
2017-06-20T13:20:00.719Z,10
2017-06-20T13:21:10.658Z,10
2017-06-20T13:22:19.982Z,15
2017-06-20T13:23:29.291Z,15
2017-06-20T13:24:39.231Z,15
2017-06-20T13:25:49.008Z,15
2017-06-20T13:26:58.682Z,20
2017-06-20T13:28:08.600Z,20
2017-06-20T13:29:18.821Z,20
2017-06-20T13:30:28.468Z,20
2017-06-20T13:31:38.404Z,20
2017-06-20T13:32:48.345Z,20
2017-06-20T13:33:58.288Z,20
2017-06-20T13:35:08.548Z,20
2017-06-20T13:36:18.507Z,20
2017-06-20T13:37:28.301Z,20
2017-06-20T13:38:37.937Z,20
2017-06-20T13:39:47.853Z,20
2017-06-20T13:40:57.779Z,20
2017-06-20T13:42:07.416Z,15
2017-06-20T13:43:17.053Z,15
2017-06-20T13:44:27.025Z,15
2017-06-20T13:45:36.645Z,15
2017-06-20T13:46:46.266Z,15
2017-06-20T13:47:56.498Z,15
2017-06-20T13:49:06.231Z,15
2017-06-20T13:50:16.148Z,15
2017-06-20T13:51:26.401Z,15
2017-06-20T13:52:36.337Z,15
2017-06-20T13:53:46.282Z,15
2017-06-20T13:54:56.695Z,15
2017-06-20T13:56:06.639Z,10
2017-06-20T13:57:16.933Z,10
2017-06-20T13:58:26.865Z,10
2017-06-20T13:59:36.792Z,10
2017-06-20T14:00:46.771Z,10
2017-06-20T14:01:56.702Z,10
2017-06-20T14:03:06.621Z,10
2017-06-20T14:04:16.541Z,10
2017-06-20T14:05:26.768Z,10
2017-06-20T14:09:09.166Z,15
2017-06-20T14:10:19.411Z,15
2017-06-20T14:11:29.060Z,15
2017-06-20T14:12:38.996Z,15
2017-06-20T14:13:48.926Z,10
2017-06-20T14:14:58.644Z,10
2017-06-20T14:16:08.568Z,10
2017-06-20T14:17:18.187Z,10
2017-06-20T14:18:28.140Z,10
2017-06-20T14:19:38.139Z,10
2017-06-20T14:20:48.076Z,10
2017-06-20T14:21:57.696Z,10
2017-06-20T14:23:07.308Z,10
2017-06-20T14:24:16.942Z,10
2017-06-20T14:25:27.193Z,10
2017-06-20T14:26:36.955Z,10
2017-06-20T14:27:47.190Z,10
2017-06-20T14:28:57.115Z,10
2017-06-20T14:30:07.444Z,10
2017-06-20T14:31:17.675Z,10
2017-06-20T14:32:28.102Z,15
2017-06-20T14:33:38.266Z,15
2017-06-20T14:34:47.897Z,10
2017-06-20T14:35:58.132Z,10
2017-06-20T14:37:07.156Z,10
2017-06-20T14:38:17.449Z,10
2017-06-20T14:39:27.064Z,10
2017-06-20T14:40:36.867Z,10
2017-06-20T14:41:46.825Z,10
2017-06-20T14:42:56.748Z,10
2017-06-20T14:44:06.989Z,10
2017-06-20T14:45:17.246Z,10
2017-06-20T14:46:27.438Z,10
2017-06-20T14:47:37.668Z,15
2017-06-20T14:48:47.300Z,15
2017-06-20T14:49:57.077Z,15
2017-06-20T14:51:06.707Z,15
2017-06-20T14:52:16.105Z,10
2017-06-20T14:53:25.720Z,15
2017-06-20T14:54:35.339Z,15
2017-06-20T14:55:45.613Z,15
2017-06-20T14:56:55.848Z,15
2017-06-20T14:58:06.100Z,15
2017-06-20T14:59:15.713Z,15
2017-06-20T15:00:24.410Z,15
2017-06-20T15:01:33.831Z,10
2017-06-20T15:02:43.773Z,10
2017-06-20T15:03:53.382Z,10
2017-06-20T15:05:03.203Z,10
2017-06-20T15:06:13.162Z,15
2017-06-20T15:07:23.095Z,15
2017-06-20T15:08:32.432Z,15
2017-06-20T15:09:42.371Z,10
2017-06-20T15:10:52.324Z,10
2017-06-20T15:12:02.266Z,10
2017-06-20T15:13:11.997Z,10
2017-06-20T15:14:21.921Z,10
2017-06-20T15:15:32.142Z,10
2017-06-20T15:16:42.274Z,15
2017-06-20T15:17:52.453Z,15
2017-06-20T15:19:01.857Z,10
2017-06-20T15:20:11.779Z,10
2017-06-20T15:21:21.700Z,10
2017-06-20T15:22:31.337Z,15
2017-06-20T15:23:41.579Z,15
2017-06-20T15:24:52.079Z,15
2017-06-20T15:26:02.324Z,15
2017-06-20T15:27:12.268Z,15
2017-06-20T15:28:22.193Z,15
2017-06-20T15:29:32.139Z,15
2017-06-20T15:30:42.548Z,10
2017-06-20T15:31:52.789Z,10
2017-06-20T15:33:02.713Z,10
2017-06-20T15:34:12.827Z,10
2017-06-20T15:35:22.148Z,10
2017-06-20T15:36:32.078Z,10
2017-06-20T15:37:41.989Z,10
2017-06-20T15:38:51.615Z,10
2017-06-20T15:40:01.577Z,10
2017-06-20T15:41:10.901Z,10
2017-06-20T15:42:20.699Z,10
2017-06-20T15:43:30.329Z,10
2017-06-20T15:44:40.565Z,10
2017-06-20T15:45:50.504Z,10
2017-06-20T15:47:00.775Z,10
2017-06-20T15:48:11.035Z,10
2017-06-20T15:49:20.668Z,10
2017-06-20T15:50:30.911Z,10
2017-06-20T15:51:41.166Z,10
2017-06-20T15:52:51.085Z,10
2017-06-20T15:54:01.463Z,10
2017-06-20T15:55:11.408Z,10
2017-06-20T15:56:21.122Z,10
2017-06-20T15:57:31.158Z,10
2017-06-20T15:58:41.086Z,10
2017-06-20T15:59:51.330Z,10
2017-06-20T16:01:01.251Z,10
2017-06-20T16:02:11.475Z,10
2017-06-20T16:03:21.163Z,10
2017-06-20T16:04:31.418Z,10
2017-06-20T16:05:40.747Z,10
2017-06-20T16:06:50.685Z,10
2017-06-20T16:08:00.768Z,10
2017-06-20T16:09:10.375Z,10
2017-06-20T16:10:20.679Z,10
2017-06-20T16:11:31.445Z,5
2017-06-20T16:12:41.398Z,5
2017-06-20T16:13:51.555Z,5
2017-06-20T16:15:01.202Z,5
2017-06-20T16:16:11.411Z,5
2017-06-20T16:17:21.568Z,5
2017-06-20T16:18:31.492Z,5
2017-06-20T16:19:41.409Z,5
2017-06-20T16:20:51.027Z,5
2017-06-20T16:22:00.342Z,5
2017-06-20T16:23:10.564Z,5
2017-06-20T16:24:20.698Z,5
2017-06-20T16:25:30.970Z,5
2017-06-20T16:26:40.903Z,5
2017-06-20T16:27:51.064Z,5
2017-06-20T16:29:01.296Z,5
2017-06-20T16:30:11.293Z,5
2017-06-20T16:31:20.913Z,5
2017-06-20T16:32:30.524Z,5
2017-06-20T16:33:40.151Z,5
2017-06-20T16:34:50.070Z,5
2017-06-20T16:35:59.372Z,5
2017-06-20T16:37:09.313Z,5
2017-06-20T16:38:19.235Z,5
2017-06-20T16:39:29.155Z,5
2017-06-20T16:40:39.478Z,5
2017-06-20T16:41:49.092Z,5
2017-06-20T16:42:58.392Z,5
2017-06-20T16:44:07.396Z,5